Details From HTKJ - KILIMANJARO INTL
To HKJK - Nairobi Jomo Kanyatta Intl
Flight Number -
Tags generated
Created
Modified
Stats Distance 127 nm / 236 km
Max Altitude 14,900 ft / 4,542 m
Waypoints 3
Social Downloads 3
Likes 0
Share VATSIM

Download

Looking for another format? Having issues loading an existing format? Contact us
Advertisement - Login to hide

Notes

Basic altitude profile: - Ascent Rate: 2500ft/min - Ascent Speed: 250kts - Cruise Altitude: 35000ft - Cruise Speed: 420kts - Descent Rate: 1500ft/min - Descent Speed: 250kts Options: - Use NATs: yes - Use PACOTS: yes - Use low airways: yes - Use high airways: yes

Route

HTKJ UTATA HKJK

ID Type Via Altitude Latitude Longitude Leg Dist Tot Dist Heading (true) Name
O HTKJ APT - 0 ft / 0 m -3.42946˚ 37.07450˚ - 0 nm - KILIMANJARO INTL
UTATA FIX - 14,900 ft / 4,542 m -2.68582˚ 37.04251˚ 44 nm 44 nm 358° / 358° -
O HKJK APT - 0 ft / 0 m -1.31707˚ 36.93076˚ 82 nm 127 nm 355° / 355° Nairobi Jomo Kanyatta Intl

Altitude Profile

Advertisement - Login to hide

HTKJ

Details ICAO HTKJ (JRO)
Name KILIMANJARO INTL
Region Tanzania
Timezone Africa/Dar_es_Salaam (UTC+3.0)
Stats Elevation 2,932 ft / 894 m (AMSL)
Location -3.429455° 37.074499°
Runways 1
Magnetic Variation 0.127° W

METAR

HTKJ 151400Z 10015KT 9999 FEW046CB 33/12 Q1010 NOSIG

Decode

TAF

TAF HTKJ 151100Z 1512/1612 09015KT 9999 SCT040

Decode

Departure Runways

ID Width Length Bearing (true) Bearing (mag) Surface Threshold Offset Overrun Length
09 148 ft / 45 m 11,818 ft / 3,602 m 87.51° 87.64° Asphalt 0 ft / 0 m 197 ft / 60 m
27 148 ft / 45 m 11,818 ft / 3,602 m 267.51° 267.64° Asphalt 0 ft / 0 m 197 ft / 60 m

HKJK

Details ICAO HKJK (NBO)
Name Nairobi Jomo Kanyatta Intl
Region Kenya
Timezone Africa/Nairobi (UTC+3.0)
Stats Elevation 5,330 ft / 1,625 m (AMSL)
Location -1.317073° 36.930757°
Runways 1
Magnetic Variation 0.576° E

METAR

HKJK 151430Z 05011KT 020V080 9999 FEW026 26/13 Q1017

Decode

TAF

TAF HKJK 151100Z 1512/1618 06010KT 9999 SCT026 BECMG 1520/1523 03005KT CAVOK TEMPO 1600/1606 9999 FEW007 SCT016 BECMG 1608/1611 06010KT SCT025 TEMPO 1612/1618 FEW027

Decode

Destination Runways

ID Width Length Bearing (true) Bearing (mag) Surface Threshold Offset Overrun Length
06 148 ft / 45 m 13,215 ft / 4,028 m 53.90° 53.32° Asphalt 0 ft / 0 m 194 ft / 59 m
24 148 ft / 45 m 13,215 ft / 4,028 m 233.90° 233.32° Asphalt 0 ft / 0 m 197 ft / 60 m

Approach Navaids

Runway Type Ident Frequency Range Bearing (true) Bearing (mag) Slope Elevation
06 Localiser INL 110.30 MHz 18 nm / 33 km 53.84° 53.26° - 5,278 ft / 1,609 m (AMSL)
06 Glidescope INL 110.30 MHz 10 nm / 19 km 53.90° 53.32° 3.00° 5,343 ft / 1,629 m (AMSL)

Popular Alternatives